sensor_id;sensor_type;location;lat;lon;timestamp;temperature;humidity
27004;DHT22;14546;47.590;19.022;2023-06-22T00:02:15;21.20;97.90
27004;DHT22;14546;47.590;19.022;2023-06-22T00:04:41;21.20;97.90
27004;DHT22;14546;47.590;19.022;2023-06-22T00:07:07;21.20;97.80
27004;DHT22;14546;47.590;19.022;2023-06-22T00:09:33;21.20;97.70
27004;DHT22;14546;47.590;19.022;2023-06-22T00:11:58;21.20;97.60
27004;DHT22;14546;47.590;19.022;2023-06-22T00:14:24;21.10;97.50
27004;DHT22;14546;47.590;19.022;2023-06-22T00:16:50;21.10;97.40
27004;DHT22;14546;47.590;19.022;2023-06-22T00:19:20;21.10;97.30
27004;DHT22;14546;47.590;19.022;2023-06-22T00:21:47;21.10;97.20
27004;DHT22;14546;47.590;19.022;2023-06-22T00:24:13;21.10;97.10
27004;DHT22;14546;47.590;19.022;2023-06-22T00:26:39;21.00;97.00
27004;DHT22;14546;47.590;19.022;2023-06-22T00:29:04;20.90;97.10
27004;DHT22;14546;47.590;19.022;2023-06-22T00:31:30;20.90;97.20
27004;DHT22;14546;47.590;19.022;2023-06-22T00:33:56;20.90;97.30
27004;DHT22;14546;47.590;19.022;2023-06-22T00:36:21;20.90;97.30
27004;DHT22;14546;47.590;19.022;2023-06-22T00:38:50;20.80;97.30
27004;DHT22;14546;47.590;19.022;2023-06-22T00:41:16;20.80;97.40
27004;DHT22;14546;47.590;19.022;2023-06-22T00:43:42;20.80;97.40
27004;DHT22;14546;47.590;19.022;2023-06-22T00:46:08;20.80;97.40
27004;DHT22;14546;47.590;19.022;2023-06-22T00:48:34;20.80;97.50
27004;DHT22;14546;47.590;19.022;2023-06-22T00:51:02;20.80;97.40
27004;DHT22;14546;47.590;19.022;2023-06-22T00:53:28;20.80;97.30
27004;DHT22;14546;47.590;19.022;2023-06-22T00:55:54;20.80;97.30
27004;DHT22;14546;47.590;19.022;2023-06-22T00:58:19;20.70;97.20
27004;DHT22;14546;47.590;19.022;2023-06-22T01:00:47;20.70;97.10
27004;DHT22;14546;47.590;19.022;2023-06-22T01:03:13;20.60;97.60
27004;DHT22;14546;47.590;19.022;2023-06-22T01:05:40;20.60;97.30
27004;DHT22;14546;47.590;19.022;2023-06-22T01:14:12;20.50;97.50
27004;DHT22;14546;47.590;19.022;2023-06-22T01:16:41;20.50;97.50
27004;DHT22;14546;47.590;19.022;2023-06-22T01:21:43;20.40;97.70
27004;DHT22;14546;47.590;19.022;2023-06-22T01:29:17;20.40;97.80
27004;DHT22;14546;47.590;19.022;2023-06-22T01:31:44;20.50;97.90
27004;DHT22;14546;47.590;19.022;2023-06-22T01:34:11;20.40;97.70
27004;DHT22;14546;47.590;19.022;2023-06-22T01:36:39;20.40;97.70
27004;DHT22;14546;47.590;19.022;2023-06-22T01:39:06;20.30;97.60
27004;DHT22;14546;47.590;19.022;2023-06-22T01:41:35;20.30;97.70
27004;DHT22;14546;47.590;19.022;2023-06-22T01:44:02;20.30;97.50
27004;DHT22;14546;47.590;19.022;2023-06-22T01:46:28;20.30;97.50
27004;DHT22;14546;47.590;19.022;2023-06-22T01:48:55;20.30;97.90
27004;DHT22;14546;47.590;19.022;2023-06-22T01:51:20;20.30;97.60
27004;DHT22;14546;47.590;19.022;2023-06-22T01:53:46;20.30;97.50
27004;DHT22;14546;47.590;19.022;2023-06-22T01:56:15;20.30;97.40
27004;DHT22;14546;47.590;19.022;2023-06-22T01:59:05;20.20;97.30
27004;DHT22;14546;47.590;19.022;2023-06-22T02:01:41;20.20;97.40
27004;DHT22;14546;47.590;19.022;2023-06-22T02:04:13;20.30;97.50
27004;DHT22;14546;47.590;19.022;2023-06-22T02:06:42;20.20;97.50
27004;DHT22;14546;47.590;19.022;2023-06-22T02:09:19;20.20;97.50
27004;DHT22;14546;47.590;19.022;2023-06-22T02:11:47;20.20;97.50
27004;DHT22;14546;47.590;19.022;2023-06-22T02:14:14;20.30;97.50
27004;DHT22;14546;47.590;19.022;2023-06-22T02:16:41;20.20;97.40
27004;DHT22;14546;47.590;19.022;2023-06-22T02:19:07;20.20;97.30
27004;DHT22;14546;47.590;19.022;2023-06-22T02:21:34;20.10;97.30
27004;DHT22;14546;47.590;19.022;2023-06-22T02:23:59;20.10;97.40
27004;DHT22;14546;47.590;19.022;2023-06-22T02:26:26;20.10;97.50
27004;DHT22;14546;47.590;19.022;2023-06-22T02:28:52;20.10;97.60
27004;DHT22;14546;47.590;19.022;2023-06-22T02:31:18;20.00;97.60
27004;DHT22;14546;47.590;19.022;2023-06-22T02:33:44;20.00;97.60
27004;DHT22;14546;47.590;19.022;2023-06-22T02:36:10;20.00;97.60
27004;DHT22;14546;47.590;19.022;2023-06-22T02:38:40;19.90;97.60
27004;DHT22;14546;47.590;19.022;2023-06-22T02:41:14;19.90;97.60
27004;DHT22;14546;47.590;19.022;2023-06-22T02:43:44;20.00;97.70
27004;DHT22;14546;47.590;19.022;2023-06-22T02:46:10;19.90;97.60
27004;DHT22;14546;47.590;19.022;2023-06-22T02:48:36;19.90;97.60
27004;DHT22;14546;47.590;19.022;2023-06-22T02:51:01;19.80;97.60
27004;DHT22;14546;47.590;19.022;2023-06-22T02:53:27;19.80;97.70
27004;DHT22;14546;47.590;19.022;2023-06-22T02:55:53;19.80;97.70
27004;DHT22;14546;47.590;19.022;2023-06-22T02:58:18;19.80;97.70
27004;DHT22;14546;47.590;19.022;2023-06-22T03:00:44;19.80;97.80
27004;DHT22;14546;47.590;19.022;2023-06-22T03:03:10;19.70;97.90
27004;DHT22;14546;47.590;19.022;2023-06-22T03:05:35;19.70;98.30
27004;DHT22;14546;47.590;19.022;2023-06-22T03:08:01;19.80;98.20
27004;DHT22;14546;47.590;19.022;2023-06-22T03:10:26;19.80;98.20
27004;DHT22;14546;47.590;19.022;2023-06-22T03:12:52;19.80;98.20
27004;DHT22;14546;47.590;19.022;2023-06-22T03:15:18;19.80;98.30
27004;DHT22;14546;47.590;19.022;2023-06-22T03:17:45;19.80;98.30
27004;DHT22;14546;47.590;19.022;2023-06-22T03:20:11;19.90;98.30
27004;DHT22;14546;47.590;19.022;2023-06-22T03:22:38;19.90;98.70
27004;DHT22;14546;47.590;19.022;2023-06-22T03:25:04;19.90;98.40
27004;DHT22;14546;47.590;19.022;2023-06-22T03:27:30;19.90;98.50
27004;DHT22;14546;47.590;19.022;2023-06-22T03:29:57;19.90;98.50
27004;DHT22;14546;47.590;19.022;2023-06-22T03:32:23;19.90;98.60
27004;DHT22;14546;47.590;19.022;2023-06-22T03:34:48;20.00;98.70
27004;DHT22;14546;47.590;19.022;2023-06-22T03:37:14;20.00;98.70
27004;DHT22;14546;47.590;19.022;2023-06-22T03:39:41;20.00;98.70
27004;DHT22;14546;47.590;19.022;2023-06-22T03:42:07;20.10;98.60
27004;DHT22;14546;47.590;19.022;2023-06-22T03:44:34;20.10;98.50
27004;DHT22;14546;47.590;19.022;2023-06-22T03:47:02;20.10;98.50
27004;DHT22;14546;47.590;19.022;2023-06-22T03:49:28;20.10;98.50
27004;DHT22;14546;47.590;19.022;2023-06-22T03:51:53;20.10;98.50
27004;DHT22;14546;47.590;19.022;2023-06-22T03:54:19;20.10;98.50
27004;DHT22;14546;47.590;19.022;2023-06-22T03:56:45;20.10;98.70
27004;DHT22;14546;47.590;19.022;2023-06-22T03:59:10;20.10;98.80
27004;DHT22;14546;47.590;19.022;2023-06-22T04:01:36;20.10;98.70
27004;DHT22;14546;47.590;19.022;2023-06-22T04:04:02;20.20;98.70
27004;DHT22;14546;47.590;19.022;2023-06-22T04:06:28;20.20;98.60
27004;DHT22;14546;47.590;19.022;2023-06-22T04:08:53;20.20;98.70
27004;DHT22;14546;47.590;19.022;2023-06-22T04:11:19;20.30;98.70
27004;DHT22;14546;47.590;19.022;2023-06-22T04:13:44;20.30;98.80
27004;DHT22;14546;47.590;19.022;2023-06-22T04:16:10;20.40;98.90
27004;DHT22;14546;47.590;19.022;2023-06-22T04:18:36;20.40;98.90
27004;DHT22;14546;47.590;19.022;2023-06-22T04:21:02;20.40;98.80
27004;DHT22;14546;47.590;19.022;2023-06-22T04:23:28;20.50;98.60
27004;DHT22;14546;47.590;19.022;2023-06-22T04:25:53;20.50;98.50
27004;DHT22;14546;47.590;19.022;2023-06-22T04:28:19;20.60;98.50
